sensor_id;sensor_type;location;lat;lon;timestamp;P1;durP1;ratioP1;P2;durP2;ratioP2
55692;SDS011;41590;53.366;5.212;2022-07-11T00:05:57;8.82;;;2.63;;
55692;SDS011;41590;53.366;5.212;2022-07-11T00:08:32;8.23;;;2.30;;
55692;SDS011;41590;53.366;5.212;2022-07-11T00:10:58;5.30;;;2.65;;
55692;SDS011;41590;53.366;5.212;2022-07-11T00:13:31;9.90;;;3.30;;
55692;SDS011;41590;53.366;5.212;2022-07-11T00:19:03;7.25;;;2.70;;
55692;SDS011;41590;53.366;5.212;2022-07-11T00:21:54;8.40;;;2.88;;
55692;SDS011;41590;53.366;5.212;2022-07-11T00:36:11;8.75;;;2.67;;
55692;SDS011;41590;53.366;5.212;2022-07-11T00:38:38;8.07;;;2.40;;
55692;SDS011;41590;53.366;5.212;2022-07-11T00:41:07;7.85;;;2.30;;
55692;SDS011;41590;53.366;5.212;2022-07-11T00:43:36;8.02;;;2.72;;
55692;SDS011;41590;53.366;5.212;2022-07-11T00:46:05;6.50;;;2.03;;
55692;SDS011;41590;53.366;5.212;2022-07-11T00:51:26;5.18;;;1.90;;
55692;SDS011;41590;53.366;5.212;2022-07-11T00:54:09;6.88;;;2.30;;
55692;SDS011;41590;53.366;5.212;2022-07-11T00:56:42;6.65;;;2.25;;
55692;SDS011;41590;53.366;5.212;2022-07-11T00:59:22;9.93;;;2.47;;
55692;SDS011;41590;53.366;5.212;2022-07-11T01:04:35;5.28;;;1.88;;
55692;SDS011;41590;53.366;5.212;2022-07-11T01:07:01;7.95;;;2.53;;
55692;SDS011;41590;53.366;5.212;2022-07-11T01:09:33;6.35;;;2.30;;
55692;SDS011;41590;53.366;5.212;2022-07-11T01:17:28;13.70;;;2.95;;
55692;SDS011;41590;53.366;5.212;2022-07-11T01:19:54;7.00;;;2.35;;
55692;SDS011;41590;53.366;5.212;2022-07-11T01:28:27;10.98;;;1.90;;
55692;SDS011;41590;53.366;5.212;2022-07-11T01:31:02;5.22;;;1.70;;
55692;SDS011;41590;53.366;5.212;2022-07-11T01:36:23;4.15;;;1.20;;
55692;SDS011;41590;53.366;5.212;2022-07-11T01:38:58;3.90;;;1.25;;
55692;SDS011;41590;53.366;5.212;2022-07-11T01:41:25;6.03;;;1.27;;
55692;SDS011;41590;53.366;5.212;2022-07-11T01:43:52;4.13;;;1.30;;
55692;SDS011;41590;53.366;5.212;2022-07-11T01:46:21;6.50;;;1.20;;
55692;SDS011;41590;53.366;5.212;2022-07-11T01:48:51;3.83;;;1.20;;
55692;SDS011;41590;53.366;5.212;2022-07-11T01:51:27;5.90;;;1.50;;
55692;SDS011;41590;53.366;5.212;2022-07-11T01:53:54;6.88;;;1.23;;
55692;SDS011;41590;53.366;5.212;2022-07-11T01:59:00;3.45;;;1.33;;
55692;SDS011;41590;53.366;5.212;2022-07-11T02:01:26;2.55;;;0.90;;
55692;SDS011;41590;53.366;5.212;2022-07-11T02:12:02;2.70;;;1.20;;
55692;SDS011;41590;53.366;5.212;2022-07-11T02:14:34;5.03;;;1.08;;
55692;SDS011;41590;53.366;5.212;2022-07-11T02:17:13;3.70;;;0.90;;
55692;SDS011;41590;53.366;5.212;2022-07-11T02:22:22;2.45;;;0.90;;
55692;SDS011;41590;53.366;5.212;2022-07-11T02:24:48;2.25;;;0.70;;
55692;SDS011;41590;53.366;5.212;2022-07-11T02:30:17;2.63;;;0.77;;
55692;SDS011;41590;53.366;5.212;2022-07-11T02:35:31;2.85;;;0.68;;
55692;SDS011;41590;53.366;5.212;2022-07-11T02:40:41;2.03;;;0.70;;
55692;SDS011;41590;53.366;5.212;2022-07-11T02:43:07;4.28;;;1.20;;
55692;SDS011;41590;53.366;5.212;2022-07-11T02:45:43;1.73;;;0.80;;
55692;SDS011;41590;53.366;5.212;2022-07-11T02:48:09;4.03;;;0.77;;
55692;SDS011;41590;53.366;5.212;2022-07-11T02:50:36;1.05;;;0.85;;
55692;SDS011;41590;53.366;5.212;2022-07-11T02:55:43;1.20;;;0.70;;
55692;SDS011;41590;53.366;5.212;2022-07-11T02:58:24;4.68;;;1.05;;
55692;SDS011;41590;53.366;5.212;2022-07-11T03:03:22;1.02;;;0.70;;
55692;SDS011;41590;53.366;5.212;2022-07-11T03:05:48;6.35;;;1.10;;
55692;SDS011;41590;53.366;5.212;2022-07-11T03:08:29;4.93;;;1.10;;
55692;SDS011;41590;53.366;5.212;2022-07-11T03:10:55;3.25;;;0.80;;
55692;SDS011;41590;53.366;5.212;2022-07-11T03:13:21;1.52;;;0.93;;
55692;SDS011;41590;53.366;5.212;2022-07-11T03:15:48;2.75;;;0.70;;
55692;SDS011;41590;53.366;5.212;2022-07-11T03:18:14;3.22;;;0.70;;
55692;SDS011;41590;53.366;5.212;2022-07-11T03:20:43;2.63;;;0.60;;
55692;SDS011;41590;53.366;5.212;2022-07-11T03:23:09;3.63;;;0.60;;
55692;SDS011;41590;53.366;5.212;2022-07-11T03:25:43;3.45;;;0.52;;
55692;SDS011;41590;53.366;5.212;2022-07-11T03:28:09;3.28;;;0.55;;
55692;SDS011;41590;53.366;5.212;2022-07-11T03:30:36;4.10;;;0.68;;
55692;SDS011;41590;53.366;5.212;2022-07-11T03:33:01;2.25;;;0.55;;
55692;SDS011;41590;53.366;5.212;2022-07-11T03:35:45;3.33;;;0.60;;
55692;SDS011;41590;53.366;5.212;2022-07-11T03:38:19;2.97;;;0.80;;
55692;SDS011;41590;53.366;5.212;2022-07-11T03:40:45;3.38;;;1.08;;
55692;SDS011;41590;53.366;5.212;2022-07-11T03:43:12;4.32;;;0.90;;
55692;SDS011;41590;53.366;5.212;2022-07-11T03:49:19;2.58;;;0.77;;
55692;SDS011;41590;53.366;5.212;2022-07-11T03:51:45;4.13;;;1.30;;
55692;SDS011;41590;53.366;5.212;2022-07-11T03:54:11;2.13;;;1.10;;
55692;SDS011;41590;53.366;5.212;2022-07-11T03:56:36;6.30;;;1.17;;
55692;SDS011;41590;53.366;5.212;2022-07-11T03:59:07;7.28;;;1.70;;
55692;SDS011;41590;53.366;5.212;2022-07-11T04:01:37;3.97;;;1.23;;
55692;SDS011;41590;53.366;5.212;2022-07-11T04:04:22;9.20;;;1.60;;
55692;SDS011;41590;53.366;5.212;2022-07-11T04:06:50;2.60;;;1.15;;
55692;SDS011;41590;53.366;5.212;2022-07-11T04:09:18;7.30;;;1.50;;
55692;SDS011;41590;53.366;5.212;2022-07-11T04:11:48;2.33;;;1.35;;
55692;SDS011;41590;53.366;5.212;2022-07-11T04:14:14;5.60;;;1.25;;
55692;SDS011;41590;53.366;5.212;2022-07-11T04:16:41;5.57;;;1.70;;
55692;SDS011;41590;53.366;5.212;2022-07-11T04:19:07;4.80;;;1.45;;
55692;SDS011;41590;53.366;5.212;2022-07-11T04:21:34;2.85;;;1.13;;
55692;SDS011;41590;53.366;5.212;2022-07-11T04:24:01;2.25;;;1.00;;
55692;SDS011;41590;53.366;5.212;2022-07-11T04:26:28;3.30;;;1.08;;
55692;SDS011;41590;53.366;5.212;2022-07-11T04:28:55;3.15;;;0.90;;
55692;SDS011;41590;53.366;5.212;2022-07-11T04:31:25;2.97;;;1.20;;
55692;SDS011;41590;53.366;5.212;2022-07-11T04:33:51;2.90;;;0.90;;
55692;SDS011;41590;53.366;5.212;2022-07-11T04:36:20;1.50;;;1.15;;
55692;SDS011;41590;53.366;5.212;2022-07-11T04:41:40;2.53;;;0.88;;
55692;SDS011;41590;53.366;5.212;2022-07-11T04:57:06;5.18;;;0.88;;
55692;SDS011;41590;53.366;5.212;2022-07-11T04:59:43;3.20;;;0.82;;
55692;SDS011;41590;53.366;5.212;2022-07-11T05:02:12;3.15;;;0.70;;
55692;SDS011;41590;53.366;5.212;2022-07-11T05:04:38;4.07;;;0.65;;
55692;SDS011;41590;53.366;5.212;2022-07-11T05:07:04;3.70;;;0.80;;
55692;SDS011;41590;53.366;5.212;2022-07-11T05:09:31;4.15;;;0.75;;
55692;SDS011;41590;53.366;5.212;2022-07-11T05:11:58;0.88;;;0.50;;
55692;SDS011;41590;53.366;5.212;2022-07-11T05:14:24;1.38;;;0.60;;
55692;SDS011;41590;53.366;5.212;2022-07-11T05:16:50;2.47;;;0.77;;
55692;SDS011;41590;53.366;5.212;2022-07-11T05:19:20;4.68;;;1.30;;
55692;SDS011;41590;53.366;5.212;2022-07-11T05:21:48;2.58;;;0.88;;
55692;SDS011;41590;53.366;5.212;2022-07-11T05:24:17;2.03;;;0.70;;
55692;SDS011;41590;53.366;5.212;2022-07-11T05:26:52;1.30;;;0.52;;
55692;SDS011;41590;53.366;5.212;2022-07-11T05:36:12;3.38;;;0.93;;
55692;SDS011;41590;53.366;5.212;2022-07-11T05:38:50;0.80;;;0.50;;
55692;SDS011;41590;53.366;5.212;2022-07-11T05:47:47;1.73;;;0.40;;
55692;SDS011;41590;53.366;5.212;2022-07-11T05:53:24;2.33;;;0.57;;
55692;SDS011;41590;53.366;5.212;2022-07-11T05:55:57;1.55;;;0.30;;
55692;SDS011;41590;53.366;5.212;2022-07-11T06:04:25;1.15;;;0.13;;
55692;SDS011;41590;53.366;5.212;2022-07-11T06:07:23;1.38;;;0.30;;
55692;SDS011;41590;53.366;5.212;2022-07-11T06:10:15;0.90;;;0.30;;
55692;SDS011;41590;53.366;5.212;2022-07-11T06:12:42;0.57;;;0.20;;
55692;SDS011;41590;53.366;5.212;2022-07-11T06:46:59;2.65;;;0.38;;
55692;SDS011;41590;53.366;5.212;2022-07-11T06:52:23;2.22;;;0.47;;
55692;SDS011;41590;53.366;5.212;2022-07-11T06:58:20;5.85;;;0.63;;
55692;SDS011;41590;53.366;5.212;2022-07-11T07:04:19;2.90;;;0.43;;
55692;SDS011;41590;53.366;5.212;2022-07-11T07:12:38;1.13;;;0.35;;
55692;SDS011;41590;53.366;5.212;2022-07-11T07:15:16;1.30;;;0.50;;
55692;SDS011;41590;53.366;5.212;2022-07-11T07:17:41;1.30;;;0.17;;
55692;SDS011;41590;53.366;5.212;2022-07-11T07:20:13;1.75;;;0.22;;
55692;SDS011;41590;53.366;5.212;2022-07-11T07:26:05;0.63;;;0.30;;
55692;SDS011;41590;53.366;5.212;2022-07-11T07:28:38;1.80;;;0.30;;
55692;SDS011;41590;53.366;5.212;2022-07-11T07:31:07;3.40;;;0.60;;
55692;SDS011;41590;53.366;5.212;2022-07-11T07:33:38;1.58;;;0.47;;
55692;SDS011;41590;53.366;5.212;2022-07-11T07:36:08;3.03;;;0.80;;
55692;SDS011;41590;53.366;5.212;2022-07-11T07:44:45;3.53;;;0.80;;
55692;SDS011;41590;53.366;5.212;2022-07-11T07:47:12;1.17;;;0.47;;
55692;SDS011;41590;53.366;5.212;2022-07-11T07:49:44;1.33;;;0.68;;
55692;SDS011;41590;53.366;5.212;2022-07-11T08:05:21;1.30;;;0.70;;
55692;SDS011;41590;53.366;5.212;2022-07-11T08:14:10;1.98;;;0.70;;
55692;SDS011;41590;53.366;5.212;2022-07-11T08:16:41;2.00;;;0.75;;
55692;SDS011;41590;53.366;5.212;2022-07-11T08:22:11;2.13;;;0.50;;
55692;SDS011;41590;53.366;5.212;2022-07-11T09:59:32;0.93;;;0.60;;
55692;SDS011;41590;53.366;5.212;2022-07-11T10:02:20;1.63;;;0.60;;
55692;SDS011;41590;53.366;5.212;2022-07-11T10:43:49;1.60;;;0.82;;
55692;SDS011;41590;53.366;5.212;2022-07-11T10:46:20;2.17;;;0.60;;
55692;SDS011;41590;53.366;5.212;2022-07-11T10:57:22;1.13;;;0.60;;
55692;SDS011;41590;53.366;5.212;2022-07-11T10:59:57;1.83;;;0.70;;
55692;SDS011;41590;53.366;5.212;2022-07-11T11:02:30;0.82;;;0.40;;
55692;SDS011;41590;53.366;5.212;2022-07-11T11:04:57;1.00;;;0.60;;
55692;SDS011;41590;53.366;5.212;2022-07-11T11:10:03;2.63;;;0.60;;
55692;SDS011;41590;53.366;5.212;2022-07-11T11:23:36;0.82;;;0.50;;
55692;SDS011;41590;53.366;5.212;2022-07-11T11:26:16;1.80;;;0.80;;
55692;SDS011;41590;53.366;5.212;2022-07-11T11:29:01;2.10;;;0.88;;
55692;SDS011;41590;53.366;5.212;2022-07-11T11:31:32;2.05;;;0.60;;
55692;SDS011;41590;53.366;5.212;2022-07-11T11:34:00;1.02;;;0.63;;
55692;SDS011;41590;53.366;5.212;2022-07-11T11:36:29;2.38;;;1.00;;
55692;SDS011;41590;53.366;5.212;2022-07-11T11:38:55;3.28;;;0.88;;
55692;SDS011;41590;53.366;5.212;2022-07-11T11:41:28;2.20;;;0.90;;
55692;SDS011;41590;53.366;5.212;2022-07-11T11:43:56;1.85;;;0.68;;
55692;SDS011;41590;53.366;5.212;2022-07-11T11:46:27;3.33;;;0.77;;
55692;SDS011;41590;53.366;5.212;2022-07-11T11:48:55;2.00;;;0.68;;
55692;SDS011;41590;53.366;5.212;2022-07-11T11:51:35;2.30;;;0.70;;
55692;SDS011;41590;53.366;5.212;2022-07-11T11:54:03;4.00;;;1.08;;
55692;SDS011;41590;53.366;5.212;2022-07-11T11:56:34;1.10;;;0.57;;
55692;SDS011;41590;53.366;5.212;2022-07-11T11:59:04;1.67;;;0.85;;
55692;SDS011;41590;53.366;5.212;2022-07-11T12:01:35;3.33;;;0.98;;
55692;SDS011;41590;53.366;5.212;2022-07-11T12:04:04;3.70;;;0.88;;
55692;SDS011;41590;53.366;5.212;2022-07-11T12:06:40;3.05;;;0.80;;
55692;SDS011;41590;53.366;5.212;2022-07-11T12:11:53;2.10;;;0.73;;
55692;SDS011;41590;53.366;5.212;2022-07-11T12:14:37;1.35;;;0.60;;
55692;SDS011;41590;53.366;5.212;2022-07-11T12:17:05;1.73;;;0.82;;
55692;SDS011;41590;53.366;5.212;2022-07-11T12:19:35;3.35;;;0.60;;
55692;SDS011;41590;53.366;5.212;2022-07-11T12:22:05;4.47;;;0.80;;
55692;SDS011;41590;53.366;5.212;2022-07-11T12:24:32;1.92;;;0.65;;
55692;SDS011;41590;53.366;5.212;2022-07-11T12:27:02;1.67;;;0.63;;
55692;SDS011;41590;53.366;5.212;2022-07-11T12:29:38;1.33;;;0.63;;
55692;SDS011;41590;53.366;5.212;2022-07-11T12:32:24;1.08;;;0.50;;
55692;SDS011;41590;53.366;5.212;2022-07-11T12:34:50;1.83;;;0.55;;
55692;SDS011;41590;53.366;5.212;2022-07-11T12:37:24;2.20;;;0.73;;
55692;SDS011;41590;53.366;5.212;2022-07-11T12:40:16;1.38;;;0.60;;
55692;SDS011;41590;53.366;5.212;2022-07-11T12:42:44;1.85;;;0.65;;
55692;SDS011;41590;53.366;5.212;2022-07-11T12:46:10;1.15;;;0.50;;
55692;SDS011;41590;53.366;5.212;2022-07-11T12:48:42;1.27;;;0.60;;
55692;SDS011;41590;53.366;5.212;2022-07-11T12:51:25;4.97;;;0.75;;
55692;SDS011;41590;53.366;5.212;2022-07-11T12:57:01;2.03;;;0.70;;
55692;SDS011;41590;53.366;5.212;2022-07-11T12:59:32;2.20;;;0.82;;
55692;SDS011;41590;53.366;5.212;2022-07-11T13:02:34;1.45;;;0.70;;
55692;SDS011;41590;53.366;5.212;2022-07-11T13:05:04;2.75;;;0.55;;
55692;SDS011;41590;53.366;5.212;2022-07-11T13:07:36;1.40;;;0.55;;
55692;SDS011;41590;53.366;5.212;2022-07-11T13:10:24;1.63;;;0.60;;
55692;SDS011;41590;53.366;5.212;2022-07-11T13:13:28;2.30;;;0.82;;
55692;SDS011;41590;53.366;5.212;2022-07-11T13:15:54;3.05;;;0.68;;
55692;SDS011;41590;53.366;5.212;2022-07-11T13:18:35;2.05;;;0.90;;
55692;SDS011;41590;53.366;5.212;2022-07-11T13:21:11;2.53;;;0.57;;
55692;SDS011;41590;53.366;5.212;2022-07-11T13:23:38;3.83;;;0.90;;
55692;SDS011;41590;53.366;5.212;2022-07-11T13:26:07;1.92;;;0.85;;
55692;SDS011;41590;53.366;5.212;2022-07-11T13:28:42;1.13;;;0.50;;
55692;SDS011;41590;53.366;5.212;2022-07-11T13:34:22;4.45;;;0.57;;
55692;SDS011;41590;53.366;5.212;2022-07-11T13:36:58;2.33;;;0.63;;
55692;SDS011;41590;53.366;5.212;2022-07-11T13:39:26;1.83;;;0.70;;
55692;SDS011;41590;53.366;5.212;2022-07-11T13:41:58;2.42;;;0.70;;
55692;SDS011;41590;53.366;5.212;2022-07-11T13:44:36;4.07;;;0.60;;
55692;SDS011;41590;53.366;5.212;2022-07-11T13:49:56;2.40;;;0.77;;
55692;SDS011;41590;53.366;5.212;2022-07-11T13:52:22;3.22;;;0.57;;
55692;SDS011;41590;53.366;5.212;2022-07-11T13:54:47;4.07;;;0.70;;
55692;SDS011;41590;53.366;5.212;2022-07-11T13:57:14;2.45;;;0.57;;
55692;SDS011;41590;53.366;5.212;2022-07-11T13:59:40;1.27;;;0.60;;
55692;SDS011;41590;53.366;5.212;2022-07-11T14:02:24;0.60;;;0.43;;
55692;SDS011;41590;53.366;5.212;2022-07-11T14:04:55;1.45;;;0.55;;
55692;SDS011;41590;53.366;5.212;2022-07-11T14:07:21;2.83;;;0.60;;
55692;SDS011;41590;53.366;5.212;2022-07-11T14:09:48;1.65;;;0.60;;
55692;SDS011;41590;53.366;5.212;2022-07-11T14:12:19;1.88;;;0.50;;
55692;SDS011;41590;53.366;5.212;2022-07-11T14:14:50;2.15;;;0.40;;
55692;SDS011;41590;53.366;5.212;2022-07-11T14:23:43;1.05;;;0.40;;
55692;SDS011;41590;53.366;5.212;2022-07-11T14:26:12;1.05;;;0.50;;
55692;SDS011;41590;53.366;5.212;2022-07-11T14:28:44;3.05;;;1.10;;
55692;SDS011;41590;53.366;5.212;2022-07-11T14:31:22;3.40;;;0.95;;
55692;SDS011;41590;53.366;5.212;2022-07-11T14:50:27;1.15;;;0.52;;
55692;SDS011;41590;53.366;5.212;2022-07-11T14:56:40;3.00;;;0.70;;
55692;SDS011;41590;53.366;5.212;2022-07-11T14:59:12;10.63;;;5.70;;
55692;SDS011;41590;53.366;5.212;2022-07-11T15:01:43;2.25;;;1.00;;
55692;SDS011;41590;53.366;5.212;2022-07-11T15:04:11;4.13;;;0.70;;
55692;SDS011;41590;53.366;5.212;2022-07-11T15:06:37;3.95;;;0.63;;
55692;SDS011;41590;53.366;5.212;2022-07-11T15:09:21;4.03;;;0.70;;
55692;SDS011;41590;53.366;5.212;2022-07-11T15:12:06;3.25;;;1.55;;
55692;SDS011;41590;53.366;5.212;2022-07-11T15:14:53;3.55;;;0.85;;
55692;SDS011;41590;53.366;5.212;2022-07-11T15:17:20;2.58;;;0.50;;
55692;SDS011;41590;53.366;5.212;2022-07-11T15:19:47;2.08;;;0.57;;
55692;SDS011;41590;53.366;5.212;2022-07-11T15:22:14;1.85;;;0.50;;
55692;SDS011;41590;53.366;5.212;2022-07-11T15:24:42;4.25;;;0.77;;
55692;SDS011;41590;53.366;5.212;2022-07-11T15:27:09;3.17;;;0.60;;
55692;SDS011;41590;53.366;5.212;2022-07-11T15:29:35;1.75;;;0.60;;
55692;SDS011;41590;53.366;5.212;2022-07-11T15:32:03;1.75;;;0.40;;
55692;SDS011;41590;53.366;5.212;2022-07-11T15:34:29;1.00;;;0.68;;
55692;SDS011;41590;53.366;5.212;2022-07-11T15:36:55;3.13;;;0.60;;
55692;SDS011;41590;53.366;5.212;2022-07-11T15:39:24;3.33;;;0.60;;
55692;SDS011;41590;53.366;5.212;2022-07-11T15:41:55;1.75;;;0.50;;
55692;SDS011;41590;53.366;5.212;2022-07-11T15:44:27;2.38;;;0.55;;
55692;SDS011;41590;53.366;5.212;2022-07-11T15:46:55;1.38;;;0.50;;
55692;SDS011;41590;53.366;5.212;2022-07-11T15:49:21;3.35;;;0.60;;
55692;SDS011;41590;53.366;5.212;2022-07-11T15:51:47;1.17;;;0.43;;
55692;SDS011;41590;53.366;5.212;2022-07-11T15:54:14;4.55;;;0.52;;
55692;SDS011;41590;53.366;5.212;2022-07-11T15:56:39;3.08;;;0.50;;
55692;SDS011;41590;53.366;5.212;2022-07-11T15:59:24;1.63;;;0.70;;
55692;SDS011;41590;53.366;5.212;2022-07-11T16:05:01;1.40;;;0.35;;
55692;SDS011;41590;53.366;5.212;2022-07-11T16:07:30;4.00;;;0.75;;
55692;SDS011;41590;53.366;5.212;2022-07-11T16:09:58;2.58;;;0.50;;
55692;SDS011;41590;53.366;5.212;2022-07-11T16:12:33;0.82;;;0.50;;
55692;SDS011;41590;53.366;5.212;2022-07-11T16:20:41;1.38;;;0.50;;
55692;SDS011;41590;53.366;5.212;2022-07-11T16:23:30;2.35;;;0.80;;
55692;SDS011;41590;53.366;5.212;2022-07-11T16:33:04;2.58;;;0.52;;
55692;SDS011;41590;53.366;5.212;2022-07-11T16:35:42;4.32;;;1.15;;
55692;SDS011;41590;53.366;5.212;2022-07-11T16:38:13;2.28;;;0.60;;
55692;SDS011;41590;53.366;5.212;2022-07-11T16:40:43;3.53;;;0.63;;
55692;SDS011;41590;53.366;5.212;2022-07-11T16:46:31;2.70;;;0.70;;
55692;SDS011;41590;53.366;5.212;2022-07-11T16:48:57;1.20;;;0.60;;
55692;SDS011;41590;53.366;5.212;2022-07-11T16:51:23;2.50;;;0.60;;
55692;SDS011;41590;53.366;5.212;2022-07-11T16:53:51;1.48;;;0.50;;
55692;SDS011;41590;53.366;5.212;2022-07-11T16:56:18;1.73;;;0.70;;
55692;SDS011;41590;53.366;5.212;2022-07-11T16:58:47;3.22;;;0.80;;
55692;SDS011;41590;53.366;5.212;2022-07-11T17:01:16;1.70;;;0.57;;
55692;SDS011;41590;53.366;5.212;2022-07-11T17:03:49;2.65;;;0.90;;
55692;SDS011;41590;53.366;5.212;2022-07-11T17:09:16;6.32;;;0.65;;
55692;SDS011;41590;53.366;5.212;2022-07-11T17:11:49;1.85;;;0.60;;
55692;SDS011;41590;53.366;5.212;2022-07-11T17:14:15;1.88;;;0.60;;
55692;SDS011;41590;53.366;5.212;2022-07-11T17:16:43;1.70;;;0.40;;
55692;SDS011;41590;53.366;5.212;2022-07-11T17:19:12;3.70;;;0.95;;
55692;SDS011;41590;53.366;5.212;2022-07-11T17:21:38;3.42;;;0.50;;
55692;SDS011;41590;53.366;5.212;2022-07-11T17:24:04;1.27;;;0.50;;
55692;SDS011;41590;53.366;5.212;2022-07-11T17:26:30;2.10;;;0.70;;
55692;SDS011;41590;53.366;5.212;2022-07-11T17:28:56;2.25;;;0.50;;
55692;SDS011;41590;53.366;5.212;2022-07-11T17:31:22;1.90;;;0.60;;
55692;SDS011;41590;53.366;5.212;2022-07-11T17:33:51;1.35;;;0.55;;
55692;SDS011;41590;53.366;5.212;2022-07-11T17:36:17;1.63;;;0.60;;
55692;SDS011;41590;53.366;5.212;2022-07-11T17:38:44;2.35;;;0.60;;
55692;SDS011;41590;53.366;5.212;2022-07-11T17:41:10;2.25;;;0.52;;
55692;SDS011;41590;53.366;5.212;2022-07-11T17:43:35;1.02;;;0.55;;
55692;SDS011;41590;53.366;5.212;2022-07-11T17:46:02;1.38;;;0.60;;
55692;SDS011;41590;53.366;5.212;2022-07-11T17:48:30;4.47;;;0.93;;
55692;SDS011;41590;53.366;5.212;2022-07-11T17:50:56;1.45;;;0.60;;
55692;SDS011;41590;53.366;5.212;2022-07-11T17:53:22;3.47;;;0.70;;
55692;SDS011;41590;53.366;5.212;2022-07-11T17:58:19;3.70;;;0.75;;
55692;SDS011;41590;53.366;5.212;2022-07-11T18:00:53;4.07;;;0.60;;
55692;SDS011;41590;53.366;5.212;2022-07-11T18:03:23;1.50;;;0.60;;
55692;SDS011;41590;53.366;5.212;2022-07-11T18:05:49;2.40;;;0.50;;
55692;SDS011;41590;53.366;5.212;2022-07-11T18:08:15;2.15;;;0.63;;
55692;SDS011;41590;53.366;5.212;2022-07-11T18:10:41;1.88;;;0.57;;
55692;SDS011;41590;53.366;5.212;2022-07-11T18:13:23;2.47;;;0.65;;
55692;SDS011;41590;53.366;5.212;2022-07-11T18:20:57;2.20;;;0.50;;
55692;SDS011;41590;53.366;5.212;2022-07-11T18:23:23;1.77;;;0.43;;
55692;SDS011;41590;53.366;5.212;2022-07-11T18:25:49;1.48;;;0.57;;
55692;SDS011;41590;53.366;5.212;2022-07-11T18:28:15;3.95;;;0.93;;
55692;SDS011;41590;53.366;5.212;2022-07-11T18:30:43;2.00;;;0.60;;
55692;SDS011;41590;53.366;5.212;2022-07-11T18:33:09;1.88;;;0.60;;
55692;SDS011;41590;53.366;5.212;2022-07-11T18:35:35;5.20;;;0.60;;
55692;SDS011;41590;53.366;5.212;2022-07-11T18:38:03;1.27;;;0.40;;
55692;SDS011;41590;53.366;5.212;2022-07-11T18:40:29;0.75;;;0.60;;
55692;SDS011;41590;53.366;5.212;2022-07-11T18:43:14;3.63;;;0.88;;
55692;SDS011;41590;53.366;5.212;2022-07-11T18:45:40;3.20;;;0.65;;
55692;SDS011;41590;53.366;5.212;2022-07-11T18:48:10;4.28;;;1.10;;
55692;SDS011;41590;53.366;5.212;2022-07-11T18:50:37;2.88;;;0.75;;
55692;SDS011;41590;53.366;5.212;2022-07-11T18:53:03;2.60;;;0.70;;
55692;SDS011;41590;53.366;5.212;2022-07-11T18:55:30;1.33;;;0.80;;
55692;SDS011;41590;53.366;5.212;2022-07-11T18:57:57;4.28;;;1.10;;
55692;SDS011;41590;53.366;5.212;2022-07-11T19:00:23;2.47;;;0.80;;
55692;SDS011;41590;53.366;5.212;2022-07-11T19:02:50;3.97;;;0.80;;
55692;SDS011;41590;53.366;5.212;2022-07-11T19:05:20;1.27;;;0.60;;
55692;SDS011;41590;53.366;5.212;2022-07-11T19:07:47;4.10;;;0.70;;
55692;SDS011;41590;53.366;5.212;2022-07-11T19:10:15;4.68;;;0.98;;
55692;SDS011;41590;53.366;5.212;2022-07-11T19:12:40;2.72;;;0.82;;
55692;SDS011;41590;53.366;5.212;2022-07-11T19:15:06;1.23;;;0.70;;
55692;SDS011;41590;53.366;5.212;2022-07-11T19:17:34;3.10;;;1.05;;
55692;SDS011;41590;53.366;5.212;2022-07-11T19:23:09;1.85;;;0.90;;
55692;SDS011;41590;53.366;5.212;2022-07-11T19:25:37;2.80;;;0.85;;
55692;SDS011;41590;53.366;5.212;2022-07-11T19:28:10;2.90;;;0.70;;
55692;SDS011;41590;53.366;5.212;2022-07-11T19:30:37;2.72;;;0.90;;
55692;SDS011;41590;53.366;5.212;2022-07-11T19:33:05;3.58;;;1.20;;
55692;SDS011;41590;53.366;5.212;2022-07-11T19:35:30;1.10;;;0.82;;
55692;SDS011;41590;53.366;5.212;2022-07-11T19:37:58;2.85;;;1.45;;
55692;SDS011;41590;53.366;5.212;2022-07-11T19:40:24;2.92;;;1.20;;
55692;SDS011;41590;53.366;5.212;2022-07-11T19:42:52;1.45;;;0.90;;
55692;SDS011;41590;53.366;5.212;2022-07-11T19:45:18;3.75;;;1.02;;
55692;SDS011;41590;53.366;5.212;2022-07-11T19:47:43;2.75;;;1.00;;
55692;SDS011;41590;53.366;5.212;2022-07-11T19:50:10;2.80;;;1.00;;
55692;SDS011;41590;53.366;5.212;2022-07-11T19:52:36;4.35;;;0.85;;
55692;SDS011;41590;53.366;5.212;2022-07-11T19:55:03;2.25;;;0.93;;
55692;SDS011;41590;53.366;5.212;2022-07-11T19:57:48;3.30;;;1.38;;
55692;SDS011;41590;53.366;5.212;2022-07-11T20:00:13;1.98;;;0.82;;
55692;SDS011;41590;53.366;5.212;2022-07-11T20:02:41;2.88;;;1.10;;
55692;SDS011;41590;53.366;5.212;2022-07-11T20:05:07;2.83;;;1.05;;
55692;SDS011;41590;53.366;5.212;2022-07-11T20:07:33;3.42;;;1.50;;
55692;SDS011;41590;53.366;5.212;2022-07-11T20:10:04;3.50;;;1.40;;
55692;SDS011;41590;53.366;5.212;2022-07-11T20:15:21;2.40;;;1.50;;
55692;SDS011;41590;53.366;5.212;2022-07-11T20:20:30;5.15;;;2.17;;
55692;SDS011;41590;53.366;5.212;2022-07-11T20:22:56;6.03;;;1.77;;
55692;SDS011;41590;53.366;5.212;2022-07-11T20:29:03;3.42;;;1.30;;
55692;SDS011;41590;53.366;5.212;2022-07-11T20:33:59;5.15;;;1.58;;
55692;SDS011;41590;53.366;5.212;2022-07-11T20:36:25;2.00;;;1.58;;
55692;SDS011;41590;53.366;5.212;2022-07-11T20:38:52;2.17;;;1.20;;
55692;SDS011;41590;53.366;5.212;2022-07-11T20:41:23;3.78;;;1.20;;
55692;SDS011;41590;53.366;5.212;2022-07-11T20:43:50;5.20;;;2.10;;
55692;SDS011;41590;53.366;5.212;2022-07-11T20:46:17;3.67;;;1.90;;
55692;SDS011;41590;53.366;5.212;2022-07-11T20:48:43;3.63;;;1.70;;
55692;SDS011;41590;53.366;5.212;2022-07-11T20:51:14;4.80;;;1.60;;
55692;SDS011;41590;53.366;5.212;2022-07-11T20:53:41;5.88;;;1.90;;
55692;SDS011;41590;53.366;5.212;2022-07-11T20:56:09;3.28;;;1.38;;
55692;SDS011;41590;53.366;5.212;2022-07-11T20:58:35;5.10;;;2.03;;
55692;SDS011;41590;53.366;5.212;2022-07-11T21:03:43;2.95;;;1.58;;
55692;SDS011;41590;53.366;5.212;2022-07-11T21:06:09;3.65;;;1.75;;
55692;SDS011;41590;53.366;5.212;2022-07-11T21:08:44;4.22;;;1.92;;
55692;SDS011;41590;53.366;5.212;2022-07-11T21:11:11;3.03;;;1.33;;
55692;SDS011;41590;53.366;5.212;2022-07-11T21:13:42;2.03;;;1.60;;
55692;SDS011;41590;53.366;5.212;2022-07-11T21:16:11;3.95;;;1.77;;
55692;SDS011;41590;53.366;5.212;2022-07-11T21:18:37;5.03;;;3.13;;
55692;SDS011;41590;53.366;5.212;2022-07-11T21:21:13;5.72;;;2.22;;
55692;SDS011;41590;53.366;5.212;2022-07-11T21:26:09;2.55;;;1.90;;
55692;SDS011;41590;53.366;5.212;2022-07-11T21:28:36;4.50;;;1.70;;
55692;SDS011;41590;53.366;5.212;2022-07-11T21:39:10;3.08;;;2.28;;
55692;SDS011;41590;53.366;5.212;2022-07-11T21:41:38;3.90;;;2.28;;
55692;SDS011;41590;53.366;5.212;2022-07-11T21:44:08;5.57;;;2.40;;
55692;SDS011;41590;53.366;5.212;2022-07-11T21:49:04;10.35;;;9.38;;
55692;SDS011;41590;53.366;5.212;2022-07-11T21:54:24;2.42;;;2.20;;
55692;SDS011;41590;53.366;5.212;2022-07-11T21:56:51;2.55;;;1.98;;
55692;SDS011;41590;53.366;5.212;2022-07-11T21:59:23;6.78;;;2.30;;
55692;SDS011;41590;53.366;5.212;2022-07-11T22:01:53;4.30;;;1.90;;
55692;SDS011;41590;53.366;5.212;2022-07-11T22:04:24;2.28;;;1.80;;
55692;SDS011;41590;53.366;5.212;2022-07-11T22:06:56;2.65;;;1.67;;
55692;SDS011;41590;53.366;5.212;2022-07-11T22:09:22;3.35;;;1.80;;
55692;SDS011;41590;53.366;5.212;2022-07-11T22:11:48;3.97;;;1.80;;
55692;SDS011;41590;53.366;5.212;2022-07-11T22:14:24;4.45;;;2.08;;
55692;SDS011;41590;53.366;5.212;2022-07-11T22:16:50;3.40;;;1.90;;
55692;SDS011;41590;53.366;5.212;2022-07-11T22:19:17;4.53;;;2.03;;
55692;SDS011;41590;53.366;5.212;2022-07-11T22:21:43;2.78;;;2.10;;
55692;SDS011;41590;53.366;5.212;2022-07-11T22:27:17;3.13;;;2.00;;
55692;SDS011;41590;53.366;5.212;2022-07-11T22:29:44;5.75;;;2.67;;
55692;SDS011;41590;53.366;5.212;2022-07-11T22:32:13;5.68;;;2.90;;
55692;SDS011;41590;53.366;5.212;2022-07-11T22:34:43;3.47;;;2.80;;